sensor_id;sensor_type;location;lat;lon;timestamp;pressure;altitude;pressure_sealevel;temperature;humidity
76726;BME280;65651;53.154;17.916;2022-12-18T00:00:00;102577.23;;;-4.59;83.07
76726;BME280;65651;53.154;17.916;2022-12-18T00:02:27;102581.77;;;-4.55;83.01
76726;BME280;65651;53.154;17.916;2022-12-18T00:04:55;102581.25;;;-4.53;82.99
76726;BME280;65651;53.154;17.916;2022-12-18T00:07:22;102576.86;;;-4.51;83.09
76726;BME280;65651;53.154;17.916;2022-12-18T00:09:49;102581.94;;;-4.50;83.09
76726;BME280;65651;53.154;17.916;2022-12-18T00:12:16;102584.91;;;-4.47;83.07
76726;BME280;65651;53.154;17.916;2022-12-18T00:14:43;102591.92;;;-4.45;83.00
76726;BME280;65651;53.154;17.916;2022-12-18T00:17:11;102586.65;;;-4.44;83.07
76726;BME280;65651;53.154;17.916;2022-12-18T00:19:38;102591.59;;;-4.46;83.21
76726;BME280;65651;53.154;17.916;2022-12-18T00:22:05;102593.16;;;-4.46;83.11
76726;BME280;65651;53.154;17.916;2022-12-18T00:24:33;102587.37;;;-4.45;83.25
76726;BME280;65651;53.154;17.916;2022-12-18T00:27:00;102592.98;;;-4.48;83.35
76726;BME280;65651;53.154;17.916;2022-12-18T00:29:27;102591.59;;;-4.48;83.27
76726;BME280;65651;53.154;17.916;2022-12-18T00:31:54;102596.48;;;-4.48;83.34
76726;BME280;65651;53.154;17.916;2022-12-18T00:34:22;102608.92;;;-4.45;83.29
76726;BME280;65651;53.154;17.916;2022-12-18T00:36:49;102610.33;;;-4.42;83.23
76726;BME280;65651;53.154;17.916;2022-12-18T00:39:16;102612.95;;;-4.39;83.18
76726;BME280;65651;53.154;17.916;2022-12-18T00:41:45;102614.35;;;-4.41;83.21
76726;BME280;65651;53.154;17.916;2022-12-18T00:44:38;102614.17;;;-4.44;83.39
76726;BME280;65651;53.154;17.916;2022-12-18T00:47:07;102622.77;;;-4.41;83.32
76726;BME280;65651;53.154;17.916;2022-12-18T00:49:34;102624.53;;;-4.41;83.33
76726;BME280;65651;53.154;17.916;2022-12-18T00:52:01;102627.32;;;-4.42;83.32
76726;BME280;65651;53.154;17.916;2022-12-18T00:54:29;102631.52;;;-4.42;83.40
76726;BME280;65651;53.154;17.916;2022-12-18T00:56:56;102634.52;;;-4.40;83.46
76726;BME280;65651;53.154;17.916;2022-12-18T00:59:24;102629.77;;;-4.39;83.35
76726;BME280;65651;53.154;17.916;2022-12-18T01:01:51;102631.20;;;-4.41;83.36
76726;BME280;65651;53.154;17.916;2022-12-18T01:04:20;102639.06;;;-4.39;83.35
76726;BME280;65651;53.154;17.916;2022-12-18T01:06:48;102648.71;;;-4.35;83.31
76726;BME280;65651;53.154;17.916;2022-12-18T01:09:15;102648.36;;;-4.34;83.38
76726;BME280;65651;53.154;17.916;2022-12-18T01:11:42;102651.34;;;-4.35;83.37
76726;BME280;65651;53.154;17.916;2022-12-18T01:14:11;102651.34;;;-4.38;83.44
76726;BME280;65651;53.154;17.916;2022-12-18T01:16:38;102646.61;;;-4.40;83.48
76726;BME280;65651;53.154;17.916;2022-12-18T01:19:05;102646.08;;;-4.40;83.45
76726;BME280;65651;53.154;17.916;2022-12-18T01:21:33;102647.48;;;-4.42;83.51
76726;BME280;65651;53.154;17.916;2022-12-18T01:24:04;102646.79;;;-4.46;83.45
76726;BME280;65651;53.154;17.916;2022-12-18T01:26:31;102655.37;;;-4.48;83.51
76726;BME280;65651;53.154;17.916;2022-12-18T01:28:59;102657.81;;;-4.50;83.62
76726;BME280;65651;53.154;17.916;2022-12-18T01:31:28;102658.70;;;-4.51;83.59
76726;BME280;65651;53.154;17.916;2022-12-18T01:33:56;102656.25;;;-4.53;83.56
76726;BME280;65651;53.154;17.916;2022-12-18T01:36:29;102665.53;;;-4.54;83.53
76726;BME280;65651;53.154;17.916;2022-12-18T01:38:56;102666.05;;;-4.56;83.63
76726;BME280;65651;53.154;17.916;2022-12-18T01:41:26;102665.70;;;-4.57;83.48
76726;BME280;65651;53.154;17.916;2022-12-18T01:47:36;102676.39;;;-4.50;83.54
76726;BME280;65651;53.154;17.916;2022-12-18T01:50:09;102686.05;;;-4.48;83.53
76726;BME280;65651;53.154;17.916;2022-12-18T01:52:38;102680.09;;;-4.47;83.54
76726;BME280;65651;53.154;17.916;2022-12-18T01:55:09;102673.59;;;-4.50;83.60
76726;BME280;65651;53.154;17.916;2022-12-18T01:57:38;102671.85;;;-4.54;83.57
76726;BME280;65651;53.154;17.916;2022-12-18T02:00:27;102668.85;;;-4.55;83.57
76726;BME280;65651;53.154;17.916;2022-12-18T02:02:55;102672.35;;;-4.56;83.51
76726;BME280;65651;53.154;17.916;2022-12-18T02:08:23;102689.70;;;-4.57;83.45
76726;BME280;65651;53.154;17.916;2022-12-18T02:11:05;102697.77;;;-4.57;83.52
76726;BME280;65651;53.154;17.916;2022-12-18T02:13:52;102685.51;;;-4.58;83.47
76726;BME280;65651;53.154;17.916;2022-12-18T02:16:29;102691.10;;;-4.62;83.57
76726;BME280;65651;53.154;17.916;2022-12-18T02:22:14;102706.54;;;-4.56;83.48
76726;BME280;65651;53.154;17.916;2022-12-18T02:24:45;102710.21;;;-4.54;83.50
76726;BME280;65651;53.154;17.916;2022-12-18T02:27:18;102715.30;;;-4.51;83.51
76726;BME280;65651;53.154;17.916;2022-12-18T02:29:54;102713.71;;;-4.50;83.46
76726;BME280;65651;53.154;17.916;2022-12-18T02:32:26;102719.15;;;-4.49;83.50
76726;BME280;65651;53.154;17.916;2022-12-18T02:34:56;102725.29;;;-4.45;83.46
76726;BME280;65651;53.154;17.916;2022-12-18T02:37:28;102727.59;;;-4.40;83.35
76726;BME280;65651;53.154;17.916;2022-12-18T02:39:58;102729.87;;;-4.35;83.45
76726;BME280;65651;53.154;17.916;2022-12-18T02:42:27;102730.04;;;-4.36;83.35
76726;BME280;65651;53.154;17.916;2022-12-18T02:44:55;102734.59;;;-4.38;83.37
76726;BME280;65651;53.154;17.916;2022-12-18T02:47:28;102737.57;;;-4.40;83.31
76726;BME280;65651;53.154;17.916;2022-12-18T02:58:43;102727.40;;;-4.45;83.30
76726;BME280;65651;53.154;17.916;2022-12-18T03:01:34;102728.28;;;-4.48;83.43
76726;BME280;65651;53.154;17.916;2022-12-18T03:04:17;102733.52;;;-4.49;83.43
76726;BME280;65651;53.154;17.916;2022-12-18T03:06:50;102732.11;;;-4.49;83.35
76726;BME280;65651;53.154;17.916;2022-12-18T03:09:26;102741.06;;;-4.50;83.40
76726;BME280;65651;53.154;17.916;2022-12-18T03:12:23;102742.98;;;-4.50;83.43
76726;BME280;65651;53.154;17.916;2022-12-18T03:15:12;102748.95;;;-4.49;83.34
76726;BME280;65651;53.154;17.916;2022-12-18T03:17:46;102744.03;;;-4.48;83.36
76726;BME280;65651;53.154;17.916;2022-12-18T03:20:19;102741.60;;;-4.46;83.38
76726;BME280;65651;53.154;17.916;2022-12-18T03:22:51;102746.69;;;-4.47;83.41
76726;BME280;65651;53.154;17.916;2022-12-18T03:25:25;102754.39;;;-4.47;83.29
76726;BME280;65651;53.154;17.916;2022-12-18T03:27:56;102754.20;;;-4.51;83.40
76726;BME280;65651;53.154;17.916;2022-12-18T03:30:29;102756.66;;;-4.53;83.39
76726;BME280;65651;53.154;17.916;2022-12-18T03:33:18;102758.92;;;-4.56;83.18
76726;BME280;65651;53.154;17.916;2022-12-18T03:35:48;102756.83;;;-4.59;83.37
76726;BME280;65651;53.154;17.916;2022-12-18T03:38:18;102761.02;;;-4.62;83.25
76726;BME280;65651;53.154;17.916;2022-12-18T03:44:08;102764.85;;;-4.68;83.25
76726;BME280;65651;53.154;17.916;2022-12-18T03:46:32;102775.19;;;-4.68;83.27
76726;BME280;65651;53.154;17.916;2022-12-18T03:51:44;102778.13;;;-4.80;83.28
76726;BME280;65651;53.154;17.916;2022-12-18T03:54:16;102775.14;;;-4.87;83.42
76726;BME280;65651;53.154;17.916;2022-12-18T03:57:05;102773.73;;;-4.91;83.15
76726;BME280;65651;53.154;17.916;2022-12-18T03:59:36;102778.98;;;-4.90;83.21
76726;BME280;65651;53.154;17.916;2022-12-18T04:02:06;102780.04;;;-4.90;83.26
76726;BME280;65651;53.154;17.916;2022-12-18T04:04:37;102774.79;;;-4.90;83.10
76726;BME280;65651;53.154;17.916;2022-12-18T04:07:08;102778.81;;;-4.89;83.21
76726;BME280;65651;53.154;17.916;2022-12-18T04:09:38;102774.61;;;-4.87;83.19
76726;BME280;65651;53.154;17.916;2022-12-18T04:12:08;102775.83;;;-4.88;83.25
76726;BME280;65651;53.154;17.916;2022-12-18T04:14:36;102781.96;;;-4.86;83.16
76726;BME280;65651;53.154;17.916;2022-12-18T04:17:03;102784.23;;;-4.88;83.19
76726;BME280;65651;53.154;17.916;2022-12-18T04:19:32;102786.52;;;-4.90;83.25
76726;BME280;65651;53.154;17.916;2022-12-18T04:22:05;102789.65;;;-4.92;83.05
76726;BME280;65651;53.154;17.916;2022-12-18T04:24:35;102788.95;;;-4.91;83.17
76726;BME280;65651;53.154;17.916;2022-12-18T04:27:09;102792.81;;;-4.91;83.14
76726;BME280;65651;53.154;17.916;2022-12-18T04:29:43;102796.65;;;-4.92;83.04
76726;BME280;65651;53.154;17.916;2022-12-18T04:32:10;102797.88;;;-4.95;83.07
76726;BME280;65651;53.154;17.916;2022-12-18T04:34:38;102803.12;;;-4.98;83.10
76726;BME280;65651;53.154;17.916;2022-12-18T04:37:06;102803.11;;;-4.98;83.15
76726;BME280;65651;53.154;17.916;2022-12-18T04:39:33;102802.77;;;-4.94;83.03
76726;BME280;65651;53.154;17.916;2022-12-18T04:42:05;102807.52;;;-4.91;83.17
76726;BME280;65651;53.154;17.916;2022-12-18T04:44:32;102808.91;;;-4.92;83.15
76726;BME280;65651;53.154;17.916;2022-12-18T04:47:00;102805.94;;;-4.94;83.23
76726;BME280;65651;53.154;17.916;2022-12-18T04:49:27;102812.41;;;-4.96;83.07
76726;BME280;65651;53.154;17.916;2022-12-18T04:51:54;102814.30;;;-4.98;83.02
76726;BME280;65651;53.154;17.916;2022-12-18T04:54:22;102816.41;;;-5.00;83.18
76726;BME280;65651;53.154;17.916;2022-12-18T04:56:49;102819.56;;;-5.00;82.94
76726;BME280;65651;53.154;17.916;2022-12-18T04:59:19;102818.30;;;-5.04;83.00
76726;BME280;65651;53.154;17.916;2022-12-18T05:01:46;102821.64;;;-5.07;82.97
76726;BME280;65651;53.154;17.916;2022-12-18T05:04:14;102826.33;;;-5.10;83.00
76726;BME280;65651;53.154;17.916;2022-12-18T05:06:41;102827.39;;;-5.11;82.98
76726;BME280;65651;53.154;17.916;2022-12-18T05:09:10;102829.31;;;-5.13;83.13
76726;BME280;65651;53.154;17.916;2022-12-18T05:11:37;102827.20;;;-5.12;83.05
76726;BME280;65651;53.154;17.916;2022-12-18T05:14:04;102830.71;;;-5.15;82.84
76726;BME280;65651;53.154;17.916;2022-12-18T05:16:32;102839.46;;;-5.14;82.95
76726;BME280;65651;53.154;17.916;2022-12-18T05:19:00;102848.00;;;-5.20;83.04
76726;BME280;65651;53.154;17.916;2022-12-18T05:21:28;102849.21;;;-5.22;82.91
76726;BME280;65651;53.154;17.916;2022-12-18T05:23:55;102853.05;;;-5.23;82.73
76726;BME280;65651;53.154;17.916;2022-12-18T05:26:22;102860.73;;;-5.27;82.78
76726;BME280;65651;53.154;17.916;2022-12-18T05:28:53;102866.11;;;-5.33;82.97
76726;BME280;65651;53.154;17.916;2022-12-18T05:31:26;102870.98;;;-5.40;83.11
76726;BME280;65651;53.154;17.916;2022-12-18T05:33:54;102877.06;;;-5.44;82.87
76726;BME280;65651;53.154;17.916;2022-12-18T05:36:24;102885.92;;;-5.52;83.00
76726;BME280;65651;53.154;17.916;2022-12-18T05:38:52;102883.77;;;-5.59;82.88
76726;BME280;65651;53.154;17.916;2022-12-18T05:41:19;102887.93;;;-5.63;82.83
76726;BME280;65651;53.154;17.916;2022-12-18T05:43:47;102889.82;;;-5.68;82.88
76726;BME280;65651;53.154;17.916;2022-12-18T05:46:17;102891.90;;;-5.71;82.98
76726;BME280;65651;53.154;17.916;2022-12-18T05:48:44;102892.73;;;-5.76;82.84
76726;BME280;65651;53.154;17.916;2022-12-18T05:51:16;102896.70;;;-5.79;82.79
76726;BME280;65651;53.154;17.916;2022-12-18T05:53:55;102900.35;;;-5.82;82.79
76726;BME280;65651;53.154;17.916;2022-12-18T05:56:26;102901.59;;;-5.81;82.91
76726;BME280;65651;53.154;17.916;2022-12-18T05:58:54;102900.37;;;-5.80;82.82
76726;BME280;65651;53.154;17.916;2022-12-18T06:01:24;102903.34;;;-5.80;82.95
76726;BME280;65651;53.154;17.916;2022-12-18T06:03:53;102906.27;;;-5.86;82.83
76726;BME280;65651;53.154;17.916;2022-12-18T06:06:23;102906.75;;;-5.90;82.72
76726;BME280;65651;53.154;17.916;2022-12-18T06:08:51;102911.45;;;-5.94;82.76
76726;BME280;65651;53.154;17.916;2022-12-18T06:11:24;102915.40;;;-6.02;82.65
76726;BME280;65651;53.154;17.916;2022-12-18T06:13:56;102920.40;;;-6.09;82.71
76726;BME280;65651;53.154;17.916;2022-12-18T06:16:27;102923.28;;;-6.16;82.66
76726;BME280;65651;53.154;17.916;2022-12-18T06:19:02;102925.86;;;-6.20;82.61
76726;BME280;65651;53.154;17.916;2022-12-18T06:21:31;102933.52;;;-6.24;82.95
76726;BME280;65651;53.154;17.916;2022-12-18T06:23:59;102939.29;;;-6.25;83.03
76726;BME280;65651;53.154;17.916;2022-12-18T06:26:26;102942.44;;;-6.23;82.93
76726;BME280;65651;53.154;17.916;2022-12-18T06:28:54;102945.19;;;-6.27;82.82
76726;BME280;65651;53.154;17.916;2022-12-18T06:31:21;102942.67;;;-6.33;83.11
76726;BME280;65651;53.154;17.916;2022-12-18T06:37:02;102946.55;;;-6.44;83.21
76726;BME280;65651;53.154;17.916;2022-12-18T06:39:33;102953.68;;;-6.46;83.00
76726;BME280;65651;53.154;17.916;2022-12-18T06:42:09;102957.98;;;-6.52;83.03
76726;BME280;65651;53.154;17.916;2022-12-18T06:44:40;102965.64;;;-6.53;83.01
76726;BME280;65651;53.154;17.916;2022-12-18T06:47:24;102971.56;;;-6.56;82.87
76726;BME280;65651;53.154;17.916;2022-12-18T06:49:52;102975.54;;;-6.58;82.98
76726;BME280;65651;53.154;17.916;2022-12-18T06:52:20;102980.73;;;-6.61;82.98
76726;BME280;65651;53.154;17.916;2022-12-18T06:54:48;102983.66;;;-6.64;82.85
76726;BME280;65651;53.154;17.916;2022-12-18T06:57:17;102994.80;;;-6.68;82.94
76726;BME280;65651;53.154;17.916;2022-12-18T07:00:05;103003.48;;;-6.70;82.89
76726;BME280;65651;53.154;17.916;2022-12-18T07:02:33;103003.46;;;-6.71;82.87
76726;BME280;65651;53.154;17.916;2022-12-18T07:05:10;103005.73;;;-6.72;82.82
76726;BME280;65651;53.154;17.916;2022-12-18T07:07:51;103005.53;;;-6.73;82.77
76726;BME280;65651;53.154;17.916;2022-12-18T07:10:20;103004.70;;;-6.71;82.82
76726;BME280;65651;53.154;17.916;2022-12-18T07:12:48;103005.09;;;-6.68;83.15
76726;BME280;65651;53.154;17.916;2022-12-18T07:15:15;103008.20;;;-6.70;83.16
76726;BME280;65651;53.154;17.916;2022-12-18T07:17:42;103012.96;;;-6.66;83.11
76726;BME280;65651;53.154;17.916;2022-12-18T07:20:10;103012.66;;;-6.63;83.04
76726;BME280;65651;53.154;17.916;2022-12-18T07:22:37;103014.63;;;-6.60;83.01
76726;BME280;65651;53.154;17.916;2022-12-18T07:25:07;103019.55;;;-6.58;82.99
76726;BME280;65651;53.154;17.916;2022-12-18T07:27:34;103022.52;;;-6.58;83.10
76726;BME280;65651;53.154;17.916;2022-12-18T07:30:02;103025.73;;;-6.53;83.09
76726;BME280;65651;53.154;17.916;2022-12-18T07:32:30;103029.45;;;-6.51;83.29
76726;BME280;65651;53.154;17.916;2022-12-18T07:34:57;103038.41;;;-6.45;83.24
76726;BME280;65651;53.154;17.916;2022-12-18T07:37:25;103047.34;;;-6.44;83.13
76726;BME280;65651;53.154;17.916;2022-12-18T07:39:55;103053.09;;;-6.45;83.33
76726;BME280;65651;53.154;17.916;2022-12-18T07:42:22;103050.85;;;-6.43;83.40
76726;BME280;65651;53.154;17.916;2022-12-18T07:44:59;103057.02;;;-6.39;83.39
76726;BME280;65651;53.154;17.916;2022-12-18T07:47:33;103054.79;;;-6.38;83.12
76726;BME280;65651;53.154;17.916;2022-12-18T07:50:00;103049.69;;;-6.39;83.27
76726;BME280;65651;53.154;17.916;2022-12-18T07:52:28;103049.50;;;-6.40;83.39
76726;BME280;65651;53.154;17.916;2022-12-18T07:54:55;103047.88;;;-6.44;83.21
76726;BME280;65651;53.154;17.916;2022-12-18T07:57:22;103047.46;;;-6.49;83.24
76726;BME280;65651;53.154;17.916;2022-12-18T07:59:49;103048.67;;;-6.50;83.27
76726;BME280;65651;53.154;17.916;2022-12-18T08:02:17;103060.86;;;-6.52;83.24
76726;BME280;65651;53.154;17.916;2022-12-18T08:04:44;103076.92;;;-6.53;83.26
76726;BME280;65651;53.154;17.916;2022-12-18T08:07:11;103081.42;;;-6.56;82.95
76726;BME280;65651;53.154;17.916;2022-12-18T08:09:38;103079.70;;;-6.55;83.11
76726;BME280;65651;53.154;17.916;2022-12-18T08:12:06;103080.65;;;-6.49;83.15
76726;BME280;65651;53.154;17.916;2022-12-18T08:14:33;103082.98;;;-6.44;83.08
76726;BME280;65651;53.154;17.916;2022-12-18T08:17:00;103086.64;;;-6.46;83.15
76726;BME280;65651;53.154;17.916;2022-12-18T08:19:27;103085.44;;;-6.44;83.05
76726;BME280;65651;53.154;17.916;2022-12-18T08:21:54;103087.77;;;-6.40;83.10
76726;BME280;65651;53.154;17.916;2022-12-18T08:24:22;103083.59;;;-6.38;82.92
76726;BME280;65651;53.154;17.916;2022-12-18T08:26:49;103086.92;;;-6.38;83.02
76726;BME280;65651;53.154;17.916;2022-12-18T08:29:17;103086.36;;;-6.40;83.18
76726;BME280;65651;53.154;17.916;2022-12-18T08:31:46;103089.66;;;-6.42;83.21
76726;BME280;65651;53.154;17.916;2022-12-18T08:34:13;103106.95;;;-6.43;83.02
76726;BME280;65651;53.154;17.916;2022-12-18T08:36:41;103118.36;;;-6.39;82.96
76726;BME280;65651;53.154;17.916;2022-12-18T08:39:08;103125.92;;;-6.35;83.10
76726;BME280;65651;53.154;17.916;2022-12-18T08:41:38;103126.25;;;-6.37;83.20
76726;BME280;65651;53.154;17.916;2022-12-18T08:44:07;103120.60;;;-6.41;83.11
76726;BME280;65651;53.154;17.916;2022-12-18T08:46:53;103121.25;;;-6.33;83.21
76726;BME280;65651;53.154;17.916;2022-12-18T08:49:20;103125.86;;;-6.29;83.04
76726;BME280;65651;53.154;17.916;2022-12-18T08:51:54;103126.45;;;-6.36;82.81
76726;BME280;65651;53.154;17.916;2022-12-18T08:54:22;103120.27;;;-6.40;83.03
76726;BME280;65651;53.154;17.916;2022-12-18T08:56:50;103118.46;;;-6.32;82.95
76726;BME280;65651;53.154;17.916;2022-12-18T08:59:18;103109.06;;;-6.17;82.95
76726;BME280;65651;53.154;17.916;2022-12-18T09:01:47;103108.22;;;-6.03;82.79
76726;BME280;65651;53.154;17.916;2022-12-18T09:04:15;103110.45;;;-5.92;82.93
76726;BME280;65651;53.154;17.916;2022-12-18T09:06:42;103098.20;;;-5.79;82.68
76726;BME280;65651;53.154;17.916;2022-12-18T09:09:10;103091.75;;;-5.77;82.76
76726;BME280;65651;53.154;17.916;2022-12-18T09:11:38;103091.77;;;-5.75;82.60
76726;BME280;65651;53.154;17.916;2022-12-18T09:14:06;103085.54;;;-5.69;82.64
76726;BME280;65651;53.154;17.916;2022-12-18T09:16:33;103085.55;;;-5.69;82.39
76726;BME280;65651;53.154;17.916;2022-12-18T09:19:04;103088.04;;;-5.79;82.40
76726;BME280;65651;53.154;17.916;2022-12-18T09:21:34;103091.61;;;-5.87;82.39
76726;BME280;65651;53.154;17.916;2022-12-18T09:24:02;103090.70;;;-5.93;82.38
76726;BME280;65651;53.154;17.916;2022-12-18T09:26:29;103086.54;;;-5.88;82.25
76726;BME280;65651;53.154;17.916;2022-12-18T09:28:57;103088.53;;;-5.82;82.18
76726;BME280;65651;53.154;17.916;2022-12-18T09:31:24;103083.92;;;-5.72;82.23
76726;BME280;65651;53.154;17.916;2022-12-18T09:33:51;103084.19;;;-5.64;82.14
76726;BME280;65651;53.154;17.916;2022-12-18T09:36:19;103083.23;;;-5.55;82.08
76726;BME280;65651;53.154;17.916;2022-12-18T09:38:46;103087.23;;;-5.60;82.10
76726;BME280;65651;53.154;17.916;2022-12-18T09:43:51;103089.16;;;-5.73;81.93
76726;BME280;65651;53.154;17.916;2022-12-18T09:46:35;103090.21;;;-5.74;81.96
76726;BME280;65651;53.154;17.916;2022-12-18T09:49:11;103096.16;;;-5.73;82.05
76726;BME280;65651;53.154;17.916;2022-12-18T09:51:45;103096.83;;;-5.76;82.03
76726;BME280;65651;53.154;17.916;2022-12-18T09:54:20;103098.06;;;-5.75;82.14
76726;BME280;65651;53.154;17.916;2022-12-18T09:56:49;103097.72;;;-5.76;82.01
76726;BME280;65651;53.154;17.916;2022-12-18T10:01:50;103087.98;;;-5.84;81.82
76726;BME280;65651;53.154;17.916;2022-12-18T10:04:21;103090.30;;;-5.98;81.95
76726;BME280;65651;53.154;17.916;2022-12-18T10:07:13;103088.27;;;-6.05;81.93
76726;BME280;65651;53.154;17.916;2022-12-18T10:09:52;103088.08;;;-6.07;81.98
76726;BME280;65651;53.154;17.916;2022-12-18T10:12:32;103093.38;;;-6.14;81.91
76726;BME280;65651;53.154;17.916;2022-12-18T10:15:08;103098.77;;;-6.16;81.98
76726;BME280;65651;53.154;17.916;2022-12-18T10:18:03;103096.01;;;-6.14;81.98
76726;BME280;65651;53.154;17.916;2022-12-18T10:20:44;103097.52;;;-6.05;81.87
76726;BME280;65651;53.154;17.916;2022-12-18T10:23:26;103105.17;;;-5.96;82.33
76726;BME280;65651;53.154;17.916;2022-12-18T10:26:06;103107.86;;;-5.88;82.28
76726;BME280;65651;53.154;17.916;2022-12-18T10:28:36;103115.91;;;-5.88;82.25
76726;BME280;65651;53.154;17.916;2022-12-18T10:31:07;103121.41;;;-5.82;82.30
76726;BME280;65651;53.154;17.916;2022-12-18T10:33:34;103108.23;;;-5.73;82.09
76726;BME280;65651;53.154;17.916;2022-12-18T10:36:01;103104.77;;;-5.69;81.98
76726;BME280;65651;53.154;17.916;2022-12-18T10:38:31;103102.58;;;-5.63;82.23
76726;BME280;65651;53.154;17.916;2022-12-18T10:43:44;103103.59;;;-5.52;82.01
76726;BME280;65651;53.154;17.916;2022-12-18T10:46:15;103107.41;;;-5.55;82.08
76726;BME280;65651;53.154;17.916;2022-12-18T10:48:48;103110.84;;;-5.60;81.99
76726;BME280;65651;53.154;17.916;2022-12-18T10:51:28;103114.38;;;-5.71;81.83
76726;BME280;65651;53.154;17.916;2022-12-18T10:53:57;103119.48;;;-5.82;81.88
76726;BME280;65651;53.154;17.916;2022-12-18T10:56:28;103124.52;;;-5.85;81.95
76726;BME280;65651;53.154;17.916;2022-12-18T10:59:20;103129.12;;;-5.81;82.03
76726;BME280;65651;53.154;17.916;2022-12-18T11:01:54;103133.40;;;-5.75;81.99
76726;BME280;65651;53.154;17.916;2022-12-18T11:04:23;103137.20;;;-5.78;82.01
76726;BME280;65651;53.154;17.916;2022-12-18T11:07:05;103135.89;;;-5.71;81.91
76726;BME280;65651;53.154;17.916;2022-12-18T11:09:35;103134.17;;;-5.69;81.78
76726;BME280;65651;53.154;17.916;2022-12-18T11:12:16;103139.04;;;-5.72;81.54
76726;BME280;65651;53.154;17.916;2022-12-18T11:14:49;103141.31;;;-5.72;81.79
76726;BME280;65651;53.154;17.916;2022-12-18T11:17:25;103143.96;;;-5.70;81.84
76726;BME280;65651;53.154;17.916;2022-12-18T11:19:59;103142.02;;;-5.71;81.65
76726;BME280;65651;53.154;17.916;2022-12-18T11:22:28;103138.72;;;-5.69;81.91
76726;BME280;65651;53.154;17.916;2022-12-18T11:27:28;103128.02;;;-5.72;81.75
76726;BME280;65651;53.154;17.916;2022-12-18T11:32:52;103114.54;;;-5.72;81.79
76726;BME280;65651;53.154;17.916;2022-12-18T11:43:59;103115.38;;;-5.60;81.52
76726;BME280;65651;53.154;17.916;2022-12-18T11:46:33;103117.05;;;-5.67;81.46
76726;BME280;65651;53.154;17.916;2022-12-18T11:49:14;103121.00;;;-5.73;81.59
76726;BME280;65651;53.154;17.916;2022-12-18T11:52:00;103124.84;;;-5.74;81.24
76726;BME280;65651;53.154;17.916;2022-12-18T11:54:29;103132.92;;;-5.70;81.43
76726;BME280;65651;53.154;17.916;2022-12-18T12:09:06;103149.00;;;-5.85;81.56
76726;BME280;65651;53.154;17.916;2022-12-18T12:17:42;103156.27;;;-6.05;81.34
76726;BME280;65651;53.154;17.916;2022-12-18T12:25:54;103168.98;;;-6.07;81.28
76726;BME280;65651;53.154;17.916;2022-12-18T12:37:23;103184.16;;;-6.11;81.47
76726;BME280;65651;53.154;17.916;2022-12-18T12:39:47;103188.68;;;-6.12;81.44
76726;BME280;65651;53.154;17.916;2022-12-18T12:42:31;103191.42;;;-6.14;81.67
76726;BME280;65651;53.154;17.916;2022-12-18T12:45:36;103198.57;;;-6.16;81.58
76726;BME280;65651;53.154;17.916;2022-12-18T12:48:07;103197.60;;;-6.12;81.65
76726;BME280;65651;53.154;17.916;2022-12-18T12:50:41;103197.81;;;-6.08;81.57
76726;BME280;65651;53.154;17.916;2022-12-18T12:53:21;103203.80;;;-6.07;81.81
76726;BME280;65651;53.154;17.916;2022-12-18T12:55:50;103204.15;;;-6.07;81.60
76726;BME280;65651;53.154;17.916;2022-12-18T13:01:01;103205.75;;;-6.16;81.83
76726;BME280;65651;53.154;17.916;2022-12-18T13:03:46;103205.71;;;-6.19;81.95
76726;BME280;65651;53.154;17.916;2022-12-18T13:08:59;103208.29;;;-6.20;81.84
76726;BME280;65651;53.154;17.916;2022-12-18T13:11:32;103206.32;;;-6.25;81.66
76726;BME280;65651;53.154;17.916;2022-12-18T13:14:31;103203.39;;;-6.32;82.14
76726;BME280;65651;53.154;17.916;2022-12-18T13:17:29;103204.98;;;-6.32;81.91
76726;BME280;65651;53.154;17.916;2022-12-18T13:20:10;103199.33;;;-6.34;81.93
76726;BME280;65651;53.154;17.916;2022-12-18T13:22:47;103189.96;;;-6.41;82.00
76726;BME280;65651;53.154;17.916;2022-12-18T13:25:33;103188.45;;;-6.48;82.05
76726;BME280;65651;53.154;17.916;2022-12-18T13:28:13;103192.58;;;-6.51;82.14
76726;BME280;65651;53.154;17.916;2022-12-18T13:35:51;103195.25;;;-6.60;82.13
76726;BME280;65651;53.154;17.916;2022-12-18T13:38:33;103192.91;;;-6.63;82.17
76726;BME280;65651;53.154;17.916;2022-12-18T13:43:54;103193.69;;;-6.69;82.20
76726;BME280;65651;53.154;17.916;2022-12-18T13:46:47;103189.70;;;-6.68;82.39
76726;BME280;65651;53.154;17.916;2022-12-18T13:49:39;103194.27;;;-6.66;82.15
76726;BME280;65651;53.154;17.916;2022-12-18T13:54:51;103187.63;;;-6.66;82.10
76726;BME280;65651;53.154;17.916;2022-12-18T13:57:34;103192.48;;;-6.58;82.15
76726;BME280;65651;53.154;17.916;2022-12-18T14:00:34;103189.79;;;-6.52;82.44
76726;BME280;65651;53.154;17.916;2022-12-18T14:03:02;103186.90;;;-6.47;82.49
76726;BME280;65651;53.154;17.916;2022-12-18T14:05:35;103192.08;;;-6.40;82.46
76726;BME280;65651;53.154;17.916;2022-12-18T14:08:10;103190.23;;;-6.35;82.36
76726;BME280;65651;53.154;17.916;2022-12-18T14:10:45;103194.98;;;-6.35;82.51
76726;BME280;65651;53.154;17.916;2022-12-18T14:13:28;103199.30;;;-6.37;82.63
76726;BME280;65651;53.154;17.916;2022-12-18T14:15:56;103196.62;;;-6.39;82.33
76726;BME280;65651;53.154;17.916;2022-12-18T14:18:48;103193.88;;;-6.37;82.31
76726;BME280;65651;53.154;17.916;2022-12-18T14:21:25;103198.34;;;-6.42;82.21
76726;BME280;65651;53.154;17.916;2022-12-18T14:24:13;103204.01;;;-6.48;82.31
76726;BME280;65651;53.154;17.916;2022-12-18T14:26:42;103211.80;;;-6.51;82.32
76726;BME280;65651;53.154;17.916;2022-12-18T14:31:46;103208.63;;;-6.54;82.26
76726;BME280;65651;53.154;17.916;2022-12-18T14:34:16;103208.48;;;-6.61;82.42
76726;BME280;65651;53.154;17.916;2022-12-18T14:36:52;103211.92;;;-6.64;82.23
76726;BME280;65651;53.154;17.916;2022-12-18T14:39:22;103212.08;;;-6.66;82.27
76726;BME280;65651;53.154;17.916;2022-12-18T14:41:51;103210.31;;;-6.67;82.25
76726;BME280;65651;53.154;17.916;2022-12-18T14:44:19;103205.77;;;-6.67;82.50